< < Back
Terminal Aerodrome Forecast


Current Version              Previous Versions:   1  2  3  4  5  6  7  8  9  

Terminal Aerodrome Forecast

572
FTUS44 KBMX 280520
TAFBHM
TAF
KBHM 280520Z 2806/2906 00000KT P6SM FEW060
     FM281500 10008KT P6SM SCT040=



Latest METAR

416
SAUS70 KWBC 290300 RRK
MTRBHM
METAR KBHM 290253Z 13004KT 10SM FEW036 FEW085 26/21 A3014 RMK AO2
TSB06E22 SLP196 T02610206 51029 $


USA.gov is the U.S. government's official web portal to all federal, state and local government web resources and services.